Terminal Aerodrome Forecast
Issued by NWS Omaha/Valley, NE

Home | Current Version | Previous Version | Text Only | Print | Product List | Glossary On
Versions: 1 2 3 4 5 6 7 8 9 10 11 12 13 14 15 16
000
FTUS43 KOAX 100520
TAFLNK
TAF
KLNK 100520Z 1006/1106 12005KT P6SM BKN040
      TEMPO 1006/1009 SCT040 BKN090
     FM101500 14010KT P6SM OVC035
     FM102000 15013KT P6SM BKN050
     FM110100 15007KT P6SM SCT030 BKN080=

USA.gov is the U.S. government's official web portal to all federal, state and local government web resources and services.